createdAt,value
2023-03-12T00:00:02.229Z,8.60
2023-03-12T00:00:12.349Z,6.60
2023-03-12T00:00:22.405Z,4.50
2023-03-12T00:00:32.473Z,4.80
2023-03-12T00:00:42.520Z,6.80
2023-03-12T00:00:52.564Z,7.90
2023-03-12T00:01:02.609Z,8.00
2023-03-12T00:01:12.704Z,7.10
2023-03-12T00:01:22.741Z,7.00
2023-03-12T00:01:32.780Z,8.60
2023-03-12T00:01:42.838Z,7.40
2023-03-12T00:01:52.887Z,6.20
2023-03-12T00:02:02.941Z,3.60
2023-03-12T00:02:13.013Z,4.40
2023-03-12T00:02:23.133Z,6.10
2023-03-12T00:02:33.207Z,9.50
2023-03-12T00:02:43.365Z,13.10
2023-03-12T00:02:53.442Z,14.80
2023-03-12T00:03:03.499Z,14.60
2023-03-12T00:03:13.581Z,11.80
2023-03-12T00:03:23.648Z,8.30
2023-03-12T00:03:33.726Z,7.50
2023-03-12T00:03:43.806Z,7.10
2023-03-12T00:03:53.995Z,6.40
2023-03-12T00:04:04.103Z,5.90
2023-03-12T00:04:14.049Z,7.40
2023-03-12T00:04:24.104Z,11.30
2023-03-12T00:04:34.169Z,11.20
2023-03-12T00:04:44.225Z,9.60
2023-03-12T00:04:54.289Z,7.50
2023-03-12T00:05:04.358Z,7.20
2023-03-12T00:05:14.439Z,7.40
2023-03-12T00:05:24.512Z,6.80
2023-03-12T00:05:34.561Z,6.50
2023-03-12T00:05:44.652Z,5.60
2023-03-12T00:05:54.730Z,8.00
2023-03-12T00:06:10.428Z,8.10
2023-03-12T00:06:15.776Z,12.40
2023-03-12T00:06:25.827Z,11.10
2023-03-12T00:06:35.860Z,12.50
2023-03-12T00:06:45.977Z,8.50
2023-03-12T00:06:56.033Z,8.70
2023-03-12T00:07:06.092Z,8.50
2023-03-12T00:07:16.177Z,9.80
2023-03-12T00:07:26.220Z,10.20
2023-03-12T00:07:36.282Z,9.10
2023-03-12T00:07:46.321Z,7.60
2023-03-12T00:07:56.379Z,5.10
2023-03-12T00:08:06.460Z,5.90
2023-03-12T00:08:16.521Z,5.80
2023-03-12T00:08:26.600Z,8.30
2023-03-12T00:08:36.639Z,8.80
2023-03-12T00:08:46.682Z,10.50
2023-03-12T00:08:56.750Z,11.70
2023-03-12T00:09:06.818Z,10.80
2023-03-12T00:09:16.880Z,10.50
2023-03-12T00:09:26.910Z,7.00
2023-03-12T00:09:36.969Z,10.50
2023-03-12T00:09:47.028Z,10.20
2023-03-12T00:09:57.088Z,10.70
2023-03-12T00:10:07.140Z,5.90
2023-03-12T00:10:17.210Z,7.60
2023-03-12T00:10:27.360Z,7.40
2023-03-12T00:10:37.457Z,8.30
2023-03-12T00:10:47.502Z,5.80
2023-03-12T00:10:57.560Z,5.90
2023-03-12T00:11:07.609Z,7.00
2023-03-12T00:11:17.689Z,7.10
2023-03-12T00:11:27.764Z,9.00
2023-03-12T00:11:37.798Z,9.10
2023-03-12T00:11:47.852Z,8.90
2023-03-12T00:11:57.888Z,7.10
2023-03-12T00:12:07.942Z,6.70
2023-03-12T00:12:17.978Z,7.30
2023-03-12T00:12:28.039Z,7.60
2023-03-12T00:12:38.068Z,6.10
2023-03-12T00:12:48.111Z,5.40
2023-03-12T00:12:58.141Z,6.20
2023-03-12T00:13:08.198Z,6.70
2023-03-12T00:13:18.248Z,8.10
2023-03-12T00:13:28.369Z,8.20
2023-03-12T00:13:38.301Z,10.20
2023-03-12T00:13:48.417Z,9.70
2023-03-12T00:13:58.450Z,8.50
2023-03-12T00:14:08.507Z,6.50
2023-03-12T00:14:18.548Z,5.20
2023-03-12T00:14:28.632Z,4.90
2023-03-12T00:14:38.684Z,6.00
2023-03-12T00:14:48.731Z,7.10
2023-03-12T00:14:58.795Z,8.00
2023-03-12T00:15:08.802Z,6.60
2023-03-12T00:15:18.838Z,5.70
2023-03-12T00:15:28.876Z,3.70
2023-03-12T00:15:39.087Z,5.30
2023-03-12T00:15:49.088Z,6.40
2023-03-12T00:15:59.182Z,6.90
2023-03-12T00:16:09.290Z,4.70
2023-03-12T00:16:19.354Z,6.20
2023-03-12T00:16:29.482Z,7.10
2023-03-12T00:16:39.557Z,8.80
2023-03-12T00:16:49.617Z,8.80
2023-03-12T00:16:59.669Z,8.00
2023-03-12T00:17:09.809Z,6.80
2023-03-12T00:17:19.853Z,6.80
2023-03-12T00:17:29.909Z,6.40
2023-03-12T00:17:39.961Z,6.30
2023-03-12T00:17:50.018Z,5.70
2023-03-12T00:18:00.048Z,4.80
2023-03-12T00:18:10.120Z,6.00
2023-03-12T00:18:20.146Z,7.00
2023-03-12T00:18:30.198Z,7.40
2023-03-12T00:18:40.266Z,7.60
2023-03-12T00:18:50.320Z,6.50
2023-03-12T00:19:00.348Z,6.80
2023-03-12T00:19:10.536Z,6.20
2023-03-12T00:19:20.415Z,6.90
2023-03-12T00:19:30.469Z,6.10
2023-03-12T00:19:40.509Z,5.50
2023-03-12T00:19:50.569Z,4.80
2023-03-12T00:20:00.652Z,6.40
2023-03-12T00:20:10.702Z,9.30
2023-03-12T00:20:20.742Z,9.40
2023-03-12T00:20:30.963Z,8.50
2023-03-12T00:20:40.828Z,5.50
2023-03-12T00:20:50.866Z,5.70
2023-03-12T00:21:00.898Z,7.40
2023-03-12T00:21:10.932Z,8.10
2023-03-12T00:21:20.956Z,8.50
2023-03-12T00:21:30.996Z,5.70
2023-03-12T00:21:41.044Z,4.40
2023-03-12T00:21:51.123Z,3.40
2023-03-12T00:22:01.179Z,3.90
2023-03-12T00:22:11.216Z,5.30
2023-03-12T00:22:21.337Z,6.10
2023-03-12T00:22:31.381Z,9.20
2023-03-12T00:22:41.506Z,8.10
2023-03-12T00:22:51.556Z,6.80
2023-03-12T00:23:01.617Z,5.40
2023-03-12T00:23:11.656Z,6.10
2023-03-12T00:23:21.718Z,7.80
2023-03-12T00:23:31.756Z,6.40
2023-03-12T00:23:41.798Z,6.90
2023-03-12T00:23:51.853Z,8.50
2023-03-12T00:24:01.997Z,10.10
2023-03-12T00:24:12.045Z,10.00
2023-03-12T00:24:22.099Z,6.80
2023-03-12T00:24:32.146Z,7.00
2023-03-12T00:24:42.192Z,6.80
2023-03-12T00:24:52.236Z,8.30
2023-03-12T00:25:02.310Z,7.00
2023-03-12T00:25:12.353Z,6.10
2023-03-12T00:25:22.416Z,4.80
2023-03-12T00:25:32.503Z,5.00
2023-03-12T00:25:44.226Z,6.60
2023-03-12T00:25:52.596Z,7.20
2023-03-12T00:26:02.634Z,8.50
2023-03-12T00:26:12.707Z,9.10
2023-03-12T00:26:22.759Z,9.30
2023-03-12T00:26:32.808Z,8.30
2023-03-12T00:26:42.871Z,11.70
2023-03-12T00:26:52.947Z,10.50
2023-03-12T00:27:03.030Z,8.90
2023-03-12T00:27:13.074Z,4.00
2023-03-12T00:27:23.125Z,4.80
2023-03-12T00:27:33.166Z,5.40
2023-03-12T00:27:43.264Z,8.00
2023-03-12T00:27:53.315Z,9.00
2023-03-12T00:28:03.368Z,9.20
2023-03-12T00:28:13.419Z,7.20
2023-03-12T00:28:23.464Z,7.60
2023-03-12T00:28:33.503Z,7.90
2023-03-12T00:28:43.568Z,7.60
2023-03-12T00:28:53.609Z,6.20
2023-03-12T00:29:03.646Z,6.10
2023-03-12T00:29:13.705Z,6.10
2023-03-12T00:29:23.764Z,6.30
2023-03-12T00:29:33.808Z,7.50
2023-03-12T00:29:43.924Z,6.50
2023-03-12T00:29:53.964Z,6.40
2023-03-12T00:30:04.012Z,5.10
2023-03-12T00:30:14.064Z,5.10
2023-03-12T00:30:24.137Z,6.20
2023-03-12T00:30:34.198Z,7.90
2023-03-12T00:30:44.282Z,7.70
2023-03-12T00:30:57.126Z,8.10
2023-03-12T00:31:04.412Z,6.50
2023-03-12T00:31:14.545Z,6.00
2023-03-12T00:31:24.633Z,5.60
2023-03-12T00:31:34.736Z,8.40
2023-03-12T00:31:44.896Z,8.00
2023-03-12T00:31:54.984Z,9.80
2023-03-12T00:32:05.064Z,6.70
2023-03-12T00:32:15.160Z,9.10
2023-03-12T00:32:25.225Z,6.80
2023-03-12T00:32:35.289Z,7.70
2023-03-12T00:32:45.465Z,5.80
2023-03-12T00:32:55.412Z,7.70
2023-03-12T00:33:05.482Z,7.00
2023-03-12T00:33:15.532Z,7.10
2023-03-12T00:33:25.589Z,9.50
2023-03-12T00:33:35.642Z,9.10
2023-03-12T00:33:45.681Z,9.20
2023-03-12T00:33:55.761Z,5.20
2023-03-12T00:34:05.801Z,5.90
2023-03-12T00:34:15.862Z,6.40
2023-03-12T00:34:25.910Z,6.40
2023-03-12T00:34:35.959Z,6.60
2023-03-12T00:34:46.061Z,8.40
2023-03-12T00:34:56.092Z,8.60
2023-03-12T00:35:06.160Z,8.10
2023-03-12T00:35:16.209Z,6.20
2023-03-12T00:35:26.323Z,5.30
2023-03-12T00:35:36.380Z,4.40
2023-03-12T00:35:46.470Z,4.90
2023-03-12T00:35:56.611Z,5.50
2023-03-12T00:36:06.663Z,7.30
2023-03-12T00:36:16.692Z,6.00
2023-03-12T00:36:26.759Z,8.50
2023-03-12T00:36:36.800Z,7.70
2023-03-12T00:36:46.921Z,7.00
2023-03-12T00:36:57.025Z,7.30
2023-03-12T00:37:07.070Z,6.70
2023-03-12T00:37:17.130Z,7.80
2023-03-12T00:37:27.171Z,5.80
2023-03-12T00:37:37.279Z,7.40
2023-03-12T00:37:47.349Z,7.00
2023-03-12T00:37:57.402Z,8.10
2023-03-12T00:38:07.450Z,6.80
2023-03-12T00:38:17.511Z,6.60
2023-03-12T00:38:27.560Z,5.50
2023-03-12T00:38:37.619Z,6.00
2023-03-12T00:38:47.672Z,8.00
2023-03-12T00:38:57.734Z,7.50
2023-03-12T00:39:07.793Z,8.00
2023-03-12T00:39:17.839Z,7.00
2023-03-12T00:39:27.878Z,6.20
2023-03-12T00:39:37.936Z,5.40
2023-03-12T00:39:47.989Z,5.80
2023-03-12T00:39:58.044Z,5.70
2023-03-12T00:40:08.106Z,6.40
2023-03-12T00:40:18.175Z,4.80
2023-03-12T00:40:28.220Z,6.00
2023-03-12T00:40:38.288Z,6.20
2023-03-12T00:40:48.332Z,6.90
2023-03-12T00:40:58.527Z,6.30
2023-03-12T00:41:08.399Z,7.20
2023-03-12T00:41:18.448Z,9.20
2023-03-12T00:41:28.500Z,11.20
2023-03-12T00:41:38.560Z,9.40
2023-03-12T00:41:48.612Z,7.10
2023-03-12T00:41:58.739Z,7.00
2023-03-12T00:42:08.779Z,7.70
2023-03-12T00:42:18.840Z,6.90
2023-03-12T00:42:28.877Z,5.20
2023-03-12T00:42:38.969Z,5.80
2023-03-12T00:42:49.008Z,5.80
2023-03-12T00:42:59.054Z,5.60
2023-03-12T00:43:09.106Z,5.20
2023-03-12T00:43:19.150Z,6.50
2023-03-12T00:43:29.180Z,7.50
2023-03-12T00:43:39.219Z,8.20
2023-03-12T00:43:49.301Z,9.00
2023-03-12T00:43:59.397Z,7.70
2023-03-12T00:44:09.439Z,11.40
2023-03-12T00:44:19.496Z,10.50
2023-03-12T00:44:29.554Z,11.20
2023-03-12T00:44:39.597Z,8.40
2023-03-12T00:44:49.648Z,8.30
2023-03-12T00:44:59.702Z,8.10
2023-03-12T00:45:09.762Z,5.70
2023-03-12T00:45:19.796Z,7.00
2023-03-12T00:45:29.850Z,7.40
2023-03-12T00:45:39.917Z,7.20
2023-03-12T00:45:49.966Z,5.40
2023-03-12T00:46:00.024Z,5.80
2023-03-12T00:46:10.149Z,6.10
2023-03-12T00:46:20.216Z,6.90
2023-03-12T00:46:30.285Z,5.80
2023-03-12T00:46:40.591Z,6.50
2023-03-12T00:46:50.577Z,7.00
2023-03-12T00:47:00.592Z,7.30
2023-03-12T00:47:10.679Z,6.80
2023-03-12T00:47:20.726Z,6.60
2023-03-12T00:47:30.776Z,6.80
2023-03-12T00:47:40.831Z,6.80
2023-03-12T00:47:50.873Z,8.30
2023-03-12T00:48:00.913Z,9.20
2023-03-12T00:48:10.951Z,8.60
2023-03-12T00:48:20.992Z,8.20
2023-03-12T00:48:31.036Z,6.60
2023-03-12T00:48:41.084Z,5.90
2023-03-12T00:48:51.143Z,4.80
2023-03-12T00:49:01.206Z,5.90
2023-03-12T00:49:11.260Z,8.10
2023-03-12T00:49:21.305Z,7.00
2023-03-12T00:49:31.390Z,7.10
2023-03-12T00:49:41.443Z,6.70
2023-03-12T00:49:51.504Z,6.90
2023-03-12T00:50:01.556Z,6.30
2023-03-12T00:50:11.619Z,5.70
2023-03-12T00:50:21.656Z,7.40
2023-03-12T00:50:31.708Z,7.20
2023-03-12T00:50:41.744Z,8.10
2023-03-12T00:50:51.798Z,6.80
2023-03-12T00:51:01.876Z,6.10
2023-03-12T00:51:11.936Z,5.30
2023-03-12T00:51:22.007Z,5.30
2023-03-12T00:51:32.053Z,11.30
2023-03-12T00:51:42.107Z,11.10
2023-03-12T00:51:52.209Z,8.90
2023-03-12T00:52:02.253Z,7.10
2023-03-12T00:52:12.285Z,6.10
2023-03-12T00:52:22.338Z,6.70
2023-03-12T00:52:32.386Z,4.60
2023-03-12T00:52:42.435Z,5.70
2023-03-12T00:52:52.484Z,5.30
2023-03-12T00:53:02.542Z,5.80
2023-03-12T00:53:12.589Z,5.50
2023-03-12T00:53:22.645Z,5.80
2023-03-12T00:53:32.704Z,5.90
2023-03-12T00:53:42.778Z,10.40
2023-03-12T00:53:52.886Z,10.20
2023-03-12T00:54:02.985Z,6.20
2023-03-12T00:54:13.025Z,6.90
2023-03-12T00:54:23.073Z,7.40
2023-03-12T00:54:33.115Z,7.40
2023-03-12T00:54:43.214Z,9.00
2023-03-12T00:54:53.255Z,8.10
2023-03-12T00:55:03.330Z,8.50
2023-03-12T00:55:13.374Z,5.80
2023-03-12T00:55:23.414Z,6.40
2023-03-12T00:55:33.467Z,5.90
2023-03-12T00:55:43.525Z,5.50
2023-03-12T00:55:53.569Z,5.00
2023-03-12T00:56:03.614Z,4.30
2023-03-12T00:56:13.681Z,5.30
2023-03-12T00:56:23.733Z,7.70
2023-03-12T00:56:33.773Z,8.90
2023-03-12T00:56:43.814Z,7.50
2023-03-12T00:56:53.883Z,5.60
2023-03-12T00:57:03.932Z,4.70
2023-03-12T00:57:13.976Z,6.30
2023-03-12T00:57:24.034Z,5.90
2023-03-12T00:57:34.084Z,5.10
2023-03-12T00:57:44.134Z,9.30
2023-03-12T00:57:54.257Z,15.80
2023-03-12T00:58:04.320Z,19.00
2023-03-12T00:58:14.417Z,17.20
2023-03-12T00:58:24.484Z,14.30
2023-03-12T00:58:34.541Z,14.50
2023-03-12T00:58:44.644Z,14.10
2023-03-12T00:58:54.704Z,12.30
2023-03-12T00:59:04.774Z,12.30
2023-03-12T00:59:14.851Z,10.20
2023-03-12T00:59:24.923Z,9.60
2023-03-12T00:59:34.963Z,8.80
2023-03-12T00:59:45.025Z,9.20
2023-03-12T00:59:55.078Z,10.10
2023-03-12T01:00:05.126Z,8.40
2023-03-12T01:00:15.176Z,8.40
2023-03-12T01:00:25.314Z,5.40
2023-03-12T01:00:35.398Z,6.40
2023-03-12T01:00:45.460Z,7.00
2023-03-12T01:00:55.511Z,9.70
2023-03-12T01:01:05.655Z,9.40
2023-03-12T01:01:15.806Z,8.10
2023-03-12T01:01:25.853Z,8.30
2023-03-12T01:01:35.913Z,11.30
2023-03-12T01:01:45.964Z,14.10
2023-03-12T01:01:56.032Z,11.90
2023-03-12T01:02:06.077Z,10.60
2023-03-12T01:02:16.116Z,8.40
2023-03-12T01:02:26.152Z,7.80
2023-03-12T01:02:36.220Z,8.10
2023-03-12T01:02:46.256Z,7.60
2023-03-12T01:02:56.334Z,8.10
2023-03-12T01:03:06.423Z,7.70
2023-03-12T01:03:16.475Z,7.20
2023-03-12T01:03:26.513Z,5.80
2023-03-12T01:03:36.641Z,5.50
2023-03-12T01:03:46.786Z,7.20
2023-03-12T01:03:56.852Z,6.40
2023-03-12T01:04:06.950Z,6.50
2023-03-12T01:04:17.038Z,5.60
2023-03-12T01:04:27.148Z,6.70
2023-03-12T01:04:37.104Z,7.00
2023-03-12T01:04:47.154Z,6.10
2023-03-12T01:04:57.244Z,5.50
2023-03-12T01:05:07.304Z,6.10
2023-03-12T01:05:17.364Z,6.60
2023-03-12T01:05:27.440Z,6.80
2023-03-12T01:05:37.590Z,5.00
2023-03-12T01:05:47.624Z,6.50
2023-03-12T01:05:57.675Z,6.80
2023-03-12T01:06:07.728Z,8.90
2023-03-12T01:06:17.815Z,8.80
2023-03-12T01:06:27.864Z,8.90
2023-03-12T01:06:37.929Z,6.30
2023-03-12T01:06:47.977Z,5.80
2023-03-12T01:06:58.069Z,6.30
2023-03-12T01:07:08.130Z,7.60
2023-03-12T01:07:18.174Z,5.80
2023-03-12T01:07:28.223Z,5.70
2023-03-12T01:07:38.274Z,5.10
2023-03-12T01:07:48.323Z,5.10
2023-03-12T01:07:58.444Z,6.40
2023-03-12T01:08:08.512Z,6.60
2023-03-12T01:08:18.545Z,10.00
2023-03-12T01:08:28.611Z,8.40
2023-03-12T01:08:38.663Z,8.60
2023-03-12T01:08:48.711Z,7.30
2023-03-12T01:08:58.753Z,7.30
2023-03-12T01:09:08.788Z,7.00
2023-03-12T01:09:18.845Z,6.30
2023-03-12T01:09:28.883Z,5.90
2023-03-12T01:09:38.924Z,10.90
2023-03-12T01:09:48.968Z,11.60
2023-03-12T01:09:59.015Z,12.10
2023-03-12T01:10:09.055Z,8.70
2023-03-12T01:10:19.110Z,9.70
2023-03-12T01:10:29.156Z,11.30
2023-03-12T01:10:39.277Z,14.20
2023-03-12T01:10:49.347Z,17.80
2023-03-12T01:10:59.458Z,21.20
2023-03-12T01:11:09.542Z,22.10
2023-03-12T01:11:19.609Z,18.30
2023-03-12T01:11:29.654Z,16.40
2023-03-12T01:11:39.718Z,12.60
2023-03-12T01:11:49.759Z,10.60
2023-03-12T01:11:59.809Z,7.50
2023-03-12T01:12:09.879Z,8.00
2023-03-12T01:12:19.916Z,7.90
2023-03-12T01:12:29.965Z,9.80
2023-03-12T01:12:40.065Z,8.10
2023-03-12T01:12:50.124Z,9.30
2023-03-12T01:13:00.157Z,6.40
2023-03-12T01:13:10.211Z,7.40
2023-03-12T01:13:20.236Z,6.10
2023-03-12T01:13:30.295Z,8.50
2023-03-12T01:13:40.358Z,8.60
2023-03-12T01:13:50.403Z,11.60
2023-03-12T01:14:00.445Z,9.40
2023-03-12T01:14:10.485Z,8.40
2023-03-12T01:14:20.535Z,5.40
2023-03-12T01:14:30.585Z,7.10
2023-03-12T01:14:40.628Z,6.10
2023-03-12T01:14:50.777Z,7.20
2023-03-12T01:15:00.818Z,7.70
2023-03-12T01:15:10.864Z,9.20
2023-03-12T01:15:20.892Z,7.40
2023-03-12T01:15:31.043Z,8.00
2023-03-12T01:15:41.087Z,8.00
2023-03-12T01:15:51.119Z,9.10
2023-03-12T01:16:01.220Z,6.30
2023-03-12T01:16:11.268Z,5.70
2023-03-12T01:16:21.394Z,5.60
2023-03-12T01:16:31.453Z,6.80
2023-03-12T01:16:41.515Z,6.60
2023-03-12T01:16:52.647Z,5.70
2023-03-12T01:17:01.627Z,6.70
2023-03-12T01:17:11.724Z,8.80
2023-03-12T01:17:21.834Z,8.50
2023-03-12T01:17:31.844Z,7.30
2023-03-12T01:17:41.903Z,5.10
2023-03-12T01:17:51.944Z,6.00
2023-03-12T01:18:02.012Z,5.80
2023-03-12T01:18:12.036Z,7.10
2023-03-12T01:18:22.115Z,8.40
2023-03-12T01:18:32.144Z,8.00
2023-03-12T01:18:42.214Z,7.10
2023-03-12T01:18:52.245Z,5.70
2023-03-12T01:19:02.301Z,5.90
2023-03-12T01:19:12.320Z,5.80
2023-03-12T01:19:22.725Z,4.90
2023-03-12T01:19:32.554Z,6.10
2023-03-12T01:19:42.734Z,6.60
2023-03-12T01:19:52.907Z,6.40
2023-03-12T01:20:02.976Z,7.90
2023-03-12T01:20:13.012Z,7.30
2023-03-12T01:20:23.047Z,7.30
2023-03-12T01:20:33.051Z,6.20
2023-03-12T01:20:43.072Z,6.40
2023-03-12T01:20:53.073Z,7.80
2023-03-12T01:21:03.071Z,7.50
2023-03-12T01:21:13.234Z,7.50
2023-03-12T01:21:23.403Z,6.00
2023-03-12T01:21:33.577Z,5.30
2023-03-12T01:21:43.569Z,5.80
2023-03-12T01:21:53.724Z,7.80
2023-03-12T01:22:03.730Z,6.70
2023-03-12T01:22:13.903Z,7.20
2023-03-12T01:22:23.915Z,5.30
2023-03-12T01:22:34.091Z,7.10
2023-03-12T01:22:44.258Z,6.00
2023-03-12T01:22:54.247Z,6.50
2023-03-12T01:23:04.243Z,4.70
2023-03-12T01:23:14.412Z,5.90
2023-03-12T01:23:24.575Z,5.00
2023-03-12T01:23:34.751Z,7.30
2023-03-12T01:23:44.834Z,6.60
2023-03-12T01:23:54.984Z,7.40
2023-03-12T01:24:05.014Z,7.10
2023-03-12T01:24:15.186Z,6.40
2023-03-12T01:24:25.210Z,6.40
2023-03-12T01:24:35.199Z,5.70
2023-03-12T01:24:45.183Z,7.10
2023-03-12T01:24:55.346Z,8.40
2023-03-12T01:25:05.506Z,10.10
2023-03-12T01:25:15.704Z,13.00
2023-03-12T01:25:25.690Z,13.80
2023-03-12T01:25:35.715Z,13.00
2023-03-12T01:25:45.763Z,8.80
2023-03-12T01:25:55.879Z,5.50
2023-03-12T01:26:05.913Z,4.90
2023-03-12T01:26:15.976Z,5.10
2023-03-12T01:26:26.013Z,7.30
2023-03-12T01:26:36.066Z,6.40
2023-03-12T01:26:46.127Z,6.80
2023-03-12T01:26:56.185Z,9.50
2023-03-12T01:27:06.224Z,10.70
2023-03-12T01:27:16.275Z,11.30
2023-03-12T01:27:26.318Z,9.60
2023-03-12T01:27:36.373Z,11.00
2023-03-12T01:27:46.422Z,10.10
2023-03-12T01:27:56.471Z,6.60
2023-03-12T01:28:06.539Z,5.00
2023-03-12T01:28:16.583Z,5.80
2023-03-12T01:28:26.646Z,6.30
2023-03-12T01:28:36.674Z,5.20
2023-03-12T01:28:46.730Z,4.50
2023-03-12T01:28:56.789Z,8.80
2023-03-12T01:29:06.827Z,8.90
2023-03-12T01:29:16.882Z,9.60
2023-03-12T01:29:26.926Z,7.80
2023-03-12T01:29:36.962Z,8.10
2023-03-12T01:29:47.021Z,8.60
2023-03-12T01:29:57.066Z,6.90
2023-03-12T01:30:07.094Z,6.30
2023-03-12T01:30:17.209Z,9.30
2023-03-12T01:30:27.244Z,9.40
2023-03-12T01:30:37.334Z,9.40
2023-03-12T01:30:47.393Z,5.00
2023-03-12T01:30:57.433Z,5.10
2023-03-12T01:31:07.506Z,5.50
2023-03-12T01:31:17.592Z,10.20
2023-03-12T01:31:27.712Z,10.60
2023-03-12T01:31:37.756Z,10.40
2023-03-12T01:31:47.809Z,7.00
2023-03-12T01:31:57.862Z,5.80
2023-03-12T01:32:07.916Z,5.80
2023-03-12T01:32:17.972Z,6.50
2023-03-12T01:32:28.043Z,6.50
2023-03-12T01:32:38.168Z,6.20
2023-03-12T01:32:48.231Z,6.00
2023-03-12T01:32:58.142Z,6.80
2023-03-12T01:33:08.228Z,8.40
2023-03-12T01:33:18.261Z,8.30
2023-03-12T01:33:28.318Z,10.40
2023-03-12T01:33:38.405Z,8.80
2023-03-12T01:33:48.453Z,11.00
2023-03-12T01:33:58.494Z,8.70
2023-03-12T01:34:08.533Z,8.60
2023-03-12T01:34:18.589Z,8.60
2023-03-12T01:34:28.641Z,8.80
2023-03-12T01:34:38.710Z,7.50
2023-03-12T01:34:48.753Z,6.50
2023-03-12T01:34:58.802Z,7.80
2023-03-12T01:35:08.890Z,9.80
2023-03-12T01:35:19.006Z,9.20
2023-03-12T01:35:29.122Z,8.30
2023-03-12T01:35:39.311Z,9.10
2023-03-12T01:35:49.276Z,9.20
2023-03-12T01:35:59.410Z,12.40
2023-03-12T01:36:09.541Z,8.50
2023-03-12T01:36:19.585Z,9.30
2023-03-12T01:36:29.717Z,6.40
2023-03-12T01:36:39.615Z,7.70
2023-03-12T01:36:49.652Z,8.30
2023-03-12T01:36:59.700Z,7.30
2023-03-12T01:37:09.753Z,6.60
2023-03-12T01:37:19.784Z,6.90
2023-03-12T01:37:29.791Z,10.10
2023-03-12T01:37:39.829Z,9.20
2023-03-12T01:37:49.877Z,8.40
2023-03-12T01:37:59.925Z,6.70
2023-03-12T01:38:10.056Z,8.70
2023-03-12T01:38:20.092Z,7.90
2023-03-12T01:38:30.138Z,6.50
2023-03-12T01:38:40.179Z,5.30
2023-03-12T01:38:50.219Z,5.20
2023-03-12T01:39:00.267Z,6.40
2023-03-12T01:39:10.343Z,7.20
2023-03-12T01:39:20.392Z,7.40
2023-03-12T01:39:30.549Z,5.80
2023-03-12T01:39:40.591Z,5.10
2023-03-12T01:39:50.697Z,5.60
2023-03-12T01:40:00.742Z,7.80
2023-03-12T01:40:10.797Z,7.50
2023-03-12T01:40:20.990Z,6.30
2023-03-12T01:40:30.998Z,5.70
2023-03-12T01:40:40.865Z,7.30
2023-03-12T01:40:50.916Z,8.10
2023-03-12T01:41:01.004Z,8.60
2023-03-12T01:41:11.037Z,6.90
2023-03-12T01:41:21.094Z,7.40
2023-03-12T01:41:31.127Z,6.40
2023-03-12T01:41:41.198Z,6.60
2023-03-12T01:41:51.246Z,8.10
2023-03-12T01:42:01.307Z,7.80
2023-03-12T01:42:11.356Z,9.20
2023-03-12T01:42:21.396Z,6.80
2023-03-12T01:42:31.451Z,6.90
2023-03-12T01:42:41.486Z,5.00
2023-03-12T01:42:51.548Z,5.10
2023-03-12T01:43:01.619Z,5.50
2023-03-12T01:43:11.668Z,7.70
2023-03-12T01:43:21.707Z,6.60
2023-03-12T01:43:31.756Z,6.00
2023-03-12T01:43:41.786Z,7.50
2023-03-12T01:43:51.867Z,8.30
2023-03-12T01:44:01.914Z,8.50
2023-03-12T01:44:11.946Z,5.50
2023-03-12T01:44:22.014Z,7.40
2023-03-12T01:44:32.067Z,8.30
2023-03-12T01:44:42.107Z,7.60
2023-03-12T01:44:52.159Z,5.40
2023-03-12T01:45:02.196Z,4.10
2023-03-12T01:45:12.245Z,4.40
2023-03-12T01:45:22.307Z,3.90
2023-03-12T01:45:32.370Z,3.80
2023-03-12T01:45:42.419Z,7.50
2023-03-12T01:45:52.498Z,9.30
2023-03-12T01:46:02.675Z,11.30
2023-03-12T01:46:12.686Z,8.40
2023-03-12T01:46:22.761Z,7.60
2023-03-12T01:46:32.799Z,7.60
2023-03-12T01:46:42.834Z,8.80
2023-03-12T01:46:52.899Z,8.30
2023-03-12T01:47:03.054Z,6.50
2023-03-12T01:47:13.110Z,5.00
2023-03-12T01:47:23.135Z,5.00
2023-03-12T01:47:33.186Z,5.60
2023-03-12T01:47:43.214Z,6.20
2023-03-12T01:47:53.277Z,8.00
2023-03-12T01:48:03.343Z,9.20
2023-03-12T01:48:13.382Z,8.30
2023-03-12T01:48:23.413Z,7.70
2023-03-12T01:48:33.457Z,6.60
2023-03-12T01:48:43.511Z,6.10
2023-03-12T01:48:53.555Z,5.90
2023-03-12T01:49:03.593Z,5.40
2023-03-12T01:49:13.656Z,6.30
2023-03-12T01:49:23.753Z,4.90
2023-03-12T01:49:33.816Z,4.70
2023-03-12T01:49:43.883Z,4.70
2023-03-12T01:49:53.912Z,4.80
2023-03-12T01:50:03.952Z,5.90
2023-03-12T01:50:13.998Z,5.40
2023-03-12T01:50:24.070Z,4.80
2023-03-12T01:50:34.121Z,4.00
2023-03-12T01:50:44.145Z,4.50
2023-03-12T01:50:54.271Z,5.80
2023-03-12T01:51:04.322Z,6.60
2023-03-12T01:51:14.418Z,6.40
2023-03-12T01:51:24.458Z,7.10
2023-03-12T01:51:34.498Z,6.60
2023-03-12T01:51:44.613Z,8.30
2023-03-12T01:51:54.664Z,6.30
2023-03-12T01:52:04.699Z,5.80
2023-03-12T01:52:14.747Z,7.10
2023-03-12T01:52:24.873Z,9.00
2023-03-12T01:52:34.912Z,8.40
2023-03-12T01:52:44.955Z,9.20
2023-03-12T01:52:54.993Z,8.60
2023-03-12T01:53:05.092Z,9.70
2023-03-12T01:53:15.165Z,6.70
2023-03-12T01:53:25.204Z,7.10
2023-03-12T01:53:35.252Z,5.50
2023-03-12T01:53:45.301Z,4.70
2023-03-12T01:53:55.322Z,4.20
2023-03-12T01:54:05.384Z,4.40
2023-03-12T01:54:15.421Z,5.50
2023-03-12T01:54:25.474Z,5.70
2023-03-12T01:54:35.529Z,6.40
2023-03-12T01:54:45.577Z,8.30
2023-03-12T01:54:55.611Z,7.30
2023-03-12T01:55:05.713Z,6.70
2023-03-12T01:55:15.731Z,5.10
2023-03-12T01:55:25.827Z,6.30
2023-03-12T01:55:35.861Z,7.80
2023-03-12T01:55:45.944Z,9.00
2023-03-12T01:55:56.074Z,7.90
2023-03-12T01:56:06.125Z,6.90
2023-03-12T01:56:16.141Z,6.20
2023-03-12T01:56:26.230Z,6.10
2023-03-12T01:56:36.249Z,6.10
2023-03-12T01:56:46.278Z,5.40
2023-03-12T01:56:56.313Z,5.00
2023-03-12T01:57:06.341Z,5.80
2023-03-12T01:57:16.352Z,7.10
2023-03-12T01:57:26.393Z,7.50
2023-03-12T01:57:36.401Z,8.00
2023-03-12T01:57:46.425Z,7.90
2023-03-12T01:57:56.435Z,9.30
2023-03-12T01:58:06.494Z,7.90
2023-03-12T01:58:16.512Z,7.50
2023-03-12T01:58:26.522Z,6.80
2023-03-12T01:58:36.531Z,6.30
2023-03-12T01:58:46.630Z,6.20
2023-03-12T01:58:56.651Z,6.30
2023-03-12T01:59:06.703Z,7.30
2023-03-12T01:59:16.765Z,7.50
2023-03-12T01:59:26.801Z,6.60
2023-03-12T01:59:36.840Z,6.80
2023-03-12T01:59:46.932Z,5.60
2023-03-12T01:59:57.034Z,5.30
2023-03-12T02:00:07.155Z,3.10
2023-03-12T02:00:17.198Z,3.00
2023-03-12T02:00:27.345Z,4.50
2023-03-12T02:00:37.439Z,6.20
2023-03-12T02:00:47.501Z,6.60
2023-03-12T02:00:57.602Z,6.40
2023-03-12T02:01:07.715Z,5.00
2023-03-12T02:01:17.860Z,7.30
2023-03-12T02:01:27.985Z,7.70
2023-03-12T02:01:38.072Z,7.80
2023-03-12T02:01:48.100Z,6.60
2023-03-12T02:01:58.132Z,6.60
2023-03-12T02:02:08.188Z,7.50
2023-03-12T02:02:18.232Z,8.40
2023-03-12T02:02:28.282Z,7.50
2023-03-12T02:02:38.317Z,8.10
2023-03-12T02:02:48.353Z,6.70
2023-03-12T02:02:58.421Z,5.70
2023-03-12T02:03:08.506Z,8.40
2023-03-12T02:03:18.563Z,8.80
2023-03-12T02:03:28.609Z,9.30
2023-03-12T02:03:38.688Z,8.00
2023-03-12T02:03:48.789Z,7.80
2023-03-12T02:03:58.930Z,7.00
2023-03-12T02:04:08.970Z,3.70
2023-03-12T02:04:19.100Z,3.20
2023-03-12T02:04:29.187Z,3.90
2023-03-12T02:04:39.231Z,5.20
2023-03-12T02:04:49.287Z,6.40
2023-03-12T02:04:59.418Z,7.50
2023-03-12T02:05:09.460Z,8.40
2023-03-12T02:05:19.510Z,8.20
2023-03-12T02:05:29.593Z,6.40
2023-03-12T02:05:39.639Z,6.10
2023-03-12T02:05:49.680Z,6.20
2023-03-12T02:05:59.744Z,7.00
2023-03-12T02:06:09.811Z,6.20
2023-03-12T02:06:19.848Z,6.00
2023-03-12T02:06:29.920Z,5.30
2023-03-12T02:06:39.958Z,5.00
2023-03-12T02:06:50.006Z,5.40
2023-03-12T02:07:00.054Z,6.20
2023-03-12T02:07:10.112Z,6.80
2023-03-12T02:07:20.158Z,11.80
2023-03-12T02:07:30.218Z,10.90
2023-03-12T02:07:40.257Z,11.70
2023-03-12T02:07:50.289Z,6.40
2023-03-12T02:08:00.298Z,8.00
2023-03-12T02:08:10.312Z,6.90
2023-03-12T02:08:20.318Z,6.30
2023-03-12T02:08:30.501Z,6.00
2023-03-12T02:08:40.489Z,5.40
2023-03-12T02:08:50.489Z,5.10
2023-03-12T02:09:00.568Z,4.60
2023-03-12T02:09:10.599Z,5.60
2023-03-12T02:09:20.609Z,5.10
2023-03-12T02:09:30.607Z,8.80
2023-03-12T02:09:40.637Z,7.10
2023-03-12T02:09:50.656Z,10.00
2023-03-12T02:10:00.667Z,6.80
2023-03-12T02:10:10.753Z,7.70
2023-03-12T02:10:20.996Z,6.60
2023-03-12T02:10:30.928Z,7.40
2023-03-12T02:10:40.977Z,7.30
2023-03-12T02:10:50.988Z,8.00
2023-03-12T02:11:01.045Z,6.10
2023-03-12T02:11:11.074Z,6.50
2023-03-12T02:11:21.076Z,5.10
2023-03-12T02:11:31.257Z,5.20
2023-03-12T02:11:41.264Z,6.40
2023-03-12T02:11:51.288Z,6.30
2023-03-12T02:12:01.473Z,6.80
2023-03-12T02:12:11.491Z,5.50
2023-03-12T02:12:21.507Z,7.30
2023-03-12T02:12:31.548Z,7.20
2023-03-12T02:12:41.522Z,7.00
2023-03-12T02:12:51.543Z,5.40
2023-03-12T02:13:01.528Z,5.80
2023-03-12T02:13:11.638Z,5.10
2023-03-12T02:13:21.665Z,6.70